Time;durP1;ratioP1;P1;durP2;ratioP2;P2;SDS_P1;SDS_P2;PMS_P1;PMS_P2;Temp;Humidity;BMP_temperature;BMP_pressure;BME280_temperature;BME280_humidity;BME280_pressure;Samples;Min_cycle;Max_cycle;Signal;HPM_P1;HPM_P2
2021/07/28 00:00:44;;;;;;;0.10;0.10;;;16.60;99.90;;;;;;5011136;28;20256;-68
2021/07/28 00:03:11;;;;;;;0.00;0.00;;;16.70;99.90;;;;;;5011348;28;20220;-68
2021/07/28 00:05:38;;;;;;;1.23;0.73;;;16.70;99.90;;;;;;5012441;28;21273;-66
2021/07/28 00:08:06;;;;;;;1.57;1.47;;;16.70;99.90;;;;;;5012844;28;20201;-66
2021/07/28 00:10:33;;;;;;;0.00;0.00;;;16.70;99.90;;;;;;5010827;28;20212;-64
2021/07/28 00:13:01;;;;;;;1.30;0.67;;;16.70;99.90;;;;;;5011796;28;20200;-63
2021/07/28 00:15:29;;;;;;;0.20;0.20;;;16.70;99.90;;;;;;5013301;28;20588;-65
2021/07/28 00:17:59;;;;;;;0.00;0.00;;;16.60;99.90;;;;;;5009370;28;20204;-65
2021/07/28 00:20:31;;;;;;;0.00;0.00;;;16.60;99.90;;;;;;5008574;28;20478;-65
2021/07/28 00:23:15;;;;;;;0.00;0.00;;;16.60;99.90;;;;;;5010029;28;20274;-65
2021/07/28 00:25:43;;;;;;;0.00;0.00;;;16.60;99.90;;;;;;5012688;28;20895;-69
2021/07/28 00:28:12;;;;;;;0.00;0.00;;;16.60;99.90;;;;;;5009498;28;20262;-65
2021/07/28 00:30:40;;;;;;;0.00;0.00;;;16.60;99.90;;;;;;5013613;28;20207;-64
2021/07/28 00:33:07;;;;;;;0.00;0.00;;;16.60;99.90;;;;;;5013574;28;20192;-63
2021/07/28 00:35:34;;;;;;;0.00;0.00;;;16.60;99.90;;;;;;5017221;28;20227;-64
2021/07/28 00:38:05;;;;;;;0.03;0.03;;;16.60;99.90;;;;;;5013930;28;20608;-66
2021/07/28 00:40:32;;;;;;;0.00;0.00;;;16.60;99.90;;;;;;5016652;28;20254;-64
2021/07/28 00:43:14;;;;;;;0.00;0.00;;;16.50;99.90;;;;;;5016973;28;20212;-64
2021/07/28 00:45:42;;;;;;;0.00;0.00;;;16.60;99.90;;;;;;5012087;28;20235;-65
2021/07/28 00:48:10;;;;;;;0.00;0.00;;;16.60;99.90;;;;;;5007300;28;20209;-66
2021/07/28 00:50:38;;;;;;;0.00;0.00;;;16.50;99.90;;;;;;5007991;28;20279;-66
2021/07/28 00:53:07;;;;;;;0.00;0.00;;;16.50;99.90;;;;;;5011567;28;20724;-67
2021/07/28 00:55:34;;;;;;;0.00;0.00;;;16.50;99.90;;;;;;5008631;28;20215;-66
2021/07/28 00:58:01;;;;;;;0.00;0.00;;;16.50;99.90;;;;;;5012529;28;20197;-65
2021/07/28 01:00:30;;;;;;;0.07;0.07;;;16.60;99.90;;;;;;5014361;28;20231;-66
2021/07/28 01:02:57;;;;;;;0.03;0.03;;;16.50;99.90;;;;;;5012705;28;20806;-65
2021/07/28 01:05:24;;;;;;;0.00;0.00;;;16.50;99.90;;;;;;5014773;28;20701;-66
2021/07/28 01:07:51;;;;;;;0.33;0.33;;;16.50;99.90;;;;;;5010387;28;20209;-65
2021/07/28 01:10:18;;;;;;;0.00;0.00;;;16.50;99.90;;;;;;5013315;28;22150;-66
2021/07/28 01:12:51;;;;;;;0.10;0.10;;;16.50;99.90;;;;;;5011220;28;20201;-66
2021/07/28 01:15:32;;;;;;;0.00;0.00;;;16.60;99.90;;;;;;5011330;28;20205;-66
2021/07/28 01:18:01;;;;;;;0.20;0.10;;;16.50;99.90;;;;;;5008671;28;20201;-64
2021/07/28 01:20:34;;;;;;;0.30;0.20;;;16.50;99.90;;;;;;5007965;28;20232;-65
2021/07/28 01:23:04;;;;;;;0.17;0.13;;;16.50;99.90;;;;;;5010738;28;20335;-66
2021/07/28 01:25:33;;;;;;;0.00;0.00;;;16.50;99.90;;;;;;5014272;28;20315;-64
2021/07/28 01:28:02;;;;;;;0.10;0.10;;;16.50;99.90;;;;;;5016298;28;20983;-65
2021/07/28 01:30:30;;;;;;;0.00;0.00;;;16.50;99.90;;;;;;5015596;28;20291;-64
2021/07/28 01:32:57;;;;;;;0.53;0.53;;;16.50;99.90;;;;;;5009612;28;20205;-66
2021/07/28 01:35:26;;;;;;;1.50;0.73;;;16.50;99.90;;;;;;5013791;28;20212;-64
2021/07/28 01:37:53;;;;;;;0.00;0.00;;;16.50;99.90;;;;;;5012569;28;20287;-65
2021/07/28 01:40:20;;;;;;;0.00;0.00;;;16.50;99.90;;;;;;5009056;28;20226;-66
2021/07/28 01:42:49;;;;;;;0.00;0.00;;;16.50;99.90;;;;;;5009939;28;20696;-65
2021/07/28 01:45:17;;;;;;;0.97;0.97;;;16.50;99.90;;;;;;5013158;28;20275;-65
2021/07/28 01:47:45;;;;;;;1.30;0.43;;;16.50;99.90;;;;;;5011505;28;20288;-64
2021/07/28 01:50:13;;;;;;;0.00;0.00;;;16.50;99.90;;;;;;5009801;28;20607;-65
2021/07/28 01:52:40;;;;;;;0.00;0.00;;;16.60;99.90;;;;;;5007402;28;20209;-67
2021/07/28 01:55:09;;;;;;;0.00;0.00;;;16.60;99.90;;;;;;5014791;28;20217;-64
2021/07/28 01:57:36;;;;;;;2.80;0.63;;;16.60;99.90;;;;;;5008426;28;20555;-65
2021/07/28 02:00:07;;;;;;;0.00;0.00;;;16.70;99.90;;;;;;5014783;28;20204;-66
2021/07/28 02:02:35;;;;;;;0.17;0.17;;;16.70;99.90;;;;;;5012906;28;20208;-65
2021/07/28 02:05:03;;;;;;;0.00;0.00;;;16.80;99.90;;;;;;5010710;28;20280;-64
2021/07/28 02:07:30;;;;;;;1.70;1.17;;;16.70;99.90;;;;;;5008563;28;20224;-65
2021/07/28 02:09:57;;;;;;;0.00;0.00;;;16.70;99.90;;;;;;5007623;28;20669;-66
2021/07/28 02:12:24;;;;;;;0.30;0.30;;;16.80;99.90;;;;;;5011116;28;20541;-66
2021/07/28 02:14:51;;;;;;;0.00;0.00;;;16.80;99.90;;;;;;5008194;28;20242;-66
2021/07/28 02:17:20;;;;;;;0.87;0.87;;;16.90;99.90;;;;;;5009807;28;20614;-65
2021/07/28 02:19:47;;;;;;;0.00;0.00;;;16.90;99.90;;;;;;5011025;28;20319;-66
2021/07/28 02:22:14;;;;;;;0.30;0.30;;;16.90;99.90;;;;;;5013053;28;20209;-66
2021/07/28 02:24:42;;;;;;;0.00;0.00;;;16.80;99.90;;;;;;5020134;28;20230;-66
2021/07/28 02:27:09;;;;;;;0.00;0.00;;;16.80;99.90;;;;;;5011863;28;20232;-66
2021/07/28 02:29:37;;;;;;;0.00;0.00;;;16.80;99.90;;;;;;5009953;28;20856;-66
2021/07/28 02:32:05;;;;;;;0.00;0.00;;;16.80;99.90;;;;;;5009288;28;20560;-66
2021/07/28 02:34:34;;;;;;;0.10;0.10;;;16.70;99.90;;;;;;5016591;28;20196;-66
2021/07/28 02:37:02;;;;;;;0.00;0.00;;;16.70;99.90;;;;;;5019363;28;20197;-65
2021/07/28 02:39:29;;;;;;;0.03;0.03;;;16.70;99.90;;;;;;5018715;28;20197;-64
2021/07/28 02:41:56;;;;;;;0.00;0.00;;;16.70;99.90;;;;;;5021889;28;20200;-64
2021/07/28 02:44:23;;;;;;;0.00;0.00;;;16.60;99.90;;;;;;5017988;28;20219;-65
2021/07/28 02:46:50;;;;;;;0.27;0.27;;;16.60;99.90;;;;;;5020287;28;20557;-65
2021/07/28 02:49:17;;;;;;;0.00;0.00;;;16.60;99.90;;;;;;5018831;28;20658;-66
2021/07/28 02:51:45;;;;;;;0.00;0.00;;;16.60;99.90;;;;;;5017726;28;20192;-65
2021/07/28 02:54:12;;;;;;;0.10;0.10;;;16.60;99.90;;;;;;5018694;28;20536;-65
2021/07/28 02:56:40;;;;;;;0.00;0.00;;;16.50;99.90;;;;;;5016181;28;20538;-64
2021/07/28 02:59:07;;;;;;;0.20;0.20;;;16.50;99.90;;;;;;5018551;28;20220;-65
2021/07/28 03:01:34;;;;;;;0.00;0.00;;;16.40;99.90;;;;;;5020354;28;20204;-64
2021/07/28 03:04:01;;;;;;;0.00;0.00;;;16.40;99.90;;;;;;5016680;28;20850;-66
2021/07/28 03:06:28;;;;;;;0.00;0.00;;;16.30;99.90;;;;;;5018751;28;20231;-63
2021/07/28 03:08:57;;;;;;;0.00;0.00;;;;;;;;;;5018581;28;20196;-66
2021/07/28 03:11:24;;;;;;;1.07;0.87;;;16.30;99.90;;;;;;5020145;28;20204;-65
2021/07/28 03:13:51;;;;;;;0.00;0.00;;;16.30;99.90;;;;;;5017431;28;20763;-65
2021/07/28 03:16:18;;;;;;;1.27;0.47;;;16.30;99.90;;;;;;5018022;28;20561;-65
2021/07/28 03:18:45;;;;;;;7.03;2.00;;;16.30;99.90;;;;;;5018872;28;20282;-63
2021/07/28 03:21:12;;;;;;;0.00;0.00;;;16.30;99.90;;;;;;5018360;28;20192;-65
2021/07/28 03:23:39;;;;;;;0.23;0.17;;;16.30;99.90;;;;;;5015197;28;20215;-66
2021/07/28 03:26:08;;;;;;;0.67;0.67;;;16.30;99.90;;;;;;5018379;28;20295;-64
2021/07/28 03:28:35;;;;;;;0.10;0.10;;;16.30;99.90;;;;;;5011600;28;20251;-66
2021/07/28 03:31:02;;;;;;;0.10;0.10;;;16.30;99.90;;;;;;5017234;28;20542;-64
2021/07/28 03:33:29;;;;;;;0.00;0.00;;;16.30;99.90;;;;;;5017500;28;20204;-65
2021/07/28 03:35:56;;;;;;;0.00;0.00;;;16.30;99.90;;;;;;5017054;28;20224;-66
2021/07/28 03:38:23;;;;;;;0.00;0.00;;;16.20;99.90;;;;;;5018276;28;20204;-64
2021/07/28 03:40:50;;;;;;;0.60;0.60;;;16.20;99.90;;;;;;5017431;28;20266;-65
2021/07/28 03:43:19;;;;;;;0.00;0.00;;;16.20;99.90;;;;;;5018335;28;20201;-64
2021/07/28 03:45:47;;;;;;;0.00;0.00;;;16.20;99.90;;;;;;5018921;28;20233;-63
2021/07/28 03:48:13;;;;;;;0.00;0.00;;;16.20;99.90;;;;;;5018411;28;20199;-64
2021/07/28 03:50:40;;;;;;;0.10;0.10;;;16.20;99.90;;;;;;5018525;28;20204;-63
2021/07/28 03:53:08;;;;;;;0.00;0.00;;;16.20;99.90;;;;;;5017405;28;20196;-64
2021/07/28 03:55:35;;;;;;;0.00;0.00;;;16.20;99.90;;;;;;5017713;28;20228;-66
2021/07/28 03:58:02;;;;;;;0.00;0.00;;;16.20;99.90;;;;;;5018584;28;20196;-67
2021/07/28 04:00:31;;;;;;;0.00;0.00;;;16.30;99.90;;;;;;5019511;28;20211;-65
2021/07/28 04:02:58;;;;;;;0.57;0.57;;;16.20;99.90;;;;;;5017537;28;20205;-64
2021/07/28 04:05:25;;;;;;;0.07;0.07;;;16.30;99.90;;;;;;5019056;28;20204;-66
2021/07/28 04:07:57;;;;;;;0.00;0.00;;;16.30;99.90;;;;;;5018230;28;20232;-63
2021/07/28 04:10:24;;;;;;;0.00;0.00;;;16.30;99.90;;;;;;5018280;28;20344;-63
2021/07/28 04:12:51;;;;;;;0.00;0.00;;;16.20;99.90;;;;;;5019585;28;20266;-64
2021/07/28 04:15:19;;;;;;;0.00;0.00;;;16.20;99.90;;;;;;5021862;28;20200;-64
2021/07/28 04:17:47;;;;;;;0.00;0.00;;;16.20;99.90;;;;;;5021307;28;20213;-63
2021/07/28 04:20:15;;;;;;;0.00;0.00;;;16.20;99.90;;;;;;5018784;28;20232;-64
2021/07/28 04:22:42;;;;;;;0.00;0.00;;;16.20;99.90;;;;;;5011110;28;20605;-64
2021/07/28 04:25:10;;;;;;;0.00;0.00;;;16.20;99.90;;;;;;5012160;28;20255;-64
2021/07/28 04:27:38;;;;;;;0.23;0.23;;;16.20;99.90;;;;;;5015299;28;20239;-68
2021/07/28 04:30:06;;;;;;;0.00;0.00;;;16.20;99.90;;;;;;5009980;28;22278;-67
2021/07/28 04:32:33;;;;;;;0.07;0.03;;;16.20;99.90;;;;;;5015297;28;20659;-65
2021/07/28 04:35:02;;;;;;;0.00;0.00;;;16.20;99.90;;;;;;5011312;28;20730;-66
2021/07/28 04:37:29;;;;;;;0.00;0.00;;;16.20;99.90;;;;;;5007717;28;20204;-64
2021/07/28 04:40:01;;;;;;;0.00;0.00;;;16.20;99.90;;;;;;5010258;28;20204;-64
2021/07/28 04:42:28;;;;;;;0.00;0.00;;;16.20;99.90;;;;;;5012743;28;20192;-65
2021/07/28 04:44:55;;;;;;;0.00;0.00;;;16.20;99.90;;;;;;5014061;28;20284;-64
2021/07/28 04:47:22;;;;;;;0.10;0.10;;;16.20;99.90;;;;;;5015298;28;20291;-68
2021/07/28 04:49:49;;;;;;;0.63;0.63;;;16.20;99.90;;;;;;5012792;28;20208;-64
2021/07/28 04:52:22;;;;;;;2.43;0.67;;;16.20;99.90;;;;;;5011311;28;20622;-65
2021/07/28 04:54:50;;;;;;;1.13;0.93;;;16.30;99.90;;;;;;5008082;28;20207;-63
2021/07/28 04:57:17;;;;;;;0.20;0.20;;;16.30;99.90;;;;;;5011269;28;20204;-67
2021/07/28 04:59:44;;;;;;;0.00;0.00;;;16.40;99.90;;;;;;5008439;28;20204;-66
2021/07/28 05:02:11;;;;;;;0.00;0.00;;;16.40;99.90;;;;;;5009665;28;20211;-68
2021/07/28 05:04:38;;;;;;;0.17;0.17;;;16.40;99.90;;;;;;5011856;28;20216;-63
2021/07/28 05:07:05;;;;;;;0.00;0.00;;;16.40;99.90;;;;;;5013977;28;20713;-64
2021/07/28 05:09:34;;;;;;;0.00;0.00;;;16.40;99.90;;;;;;5007709;28;20208;-65
2021/07/28 05:12:01;;;;;;;0.00;0.00;;;16.30;99.90;;;;;;5009348;28;20294;-65
2021/07/28 05:14:28;;;;;;;0.00;0.00;;;16.40;99.90;;;;;;5008651;28;20223;-64
2021/07/28 05:16:55;;;;;;;1.07;0.67;;;16.40;99.90;;;;;;5012027;28;20192;-64
2021/07/28 05:19:22;;;;;;;0.10;0.10;;;16.50;99.90;;;;;;5018964;28;20286;-64
2021/07/28 05:21:49;;;;;;;0.40;0.40;;;16.50;99.90;;;;;;5022772;28;20196;-63
2021/07/28 05:24:16;;;;;;;0.07;0.07;;;16.50;99.90;;;;;;5019712;28;20327;-65
2021/07/28 05:26:44;;;;;;;0.00;0.00;;;16.50;99.90;;;;;;5018132;28;20603;-69
2021/07/28 05:29:11;;;;;;;0.30;0.30;;;16.50;99.90;;;;;;5019045;28;20196;-64
2021/07/28 05:31:39;;;;;;;0.00;0.00;;;;;;;;;;5021488;28;20212;-67
2021/07/28 05:34:06;;;;;;;0.40;0.30;;;;;;;;;;5019414;28;20258;-66
2021/07/28 05:36:33;;;;;;;0.00;0.00;;;;;;;;;;5019689;28;20204;-66
2021/07/28 05:39:01;;;;;;;0.00;0.00;;;;;;;;;;5019645;28;20192;-68
2021/07/28 05:41:28;;;;;;;1.10;1.03;;;;;;;;;;5019332;28;21171;-68
2021/07/28 05:43:56;;;;;;;0.33;0.33;;;;;;;;;;5020685;28;20274;-66
2021/07/28 05:46:24;;;;;;;0.57;0.27;;;;;;;;;;5019755;28;20302;-68
2021/07/28 05:48:51;;;;;;;0.10;0.10;;;;;;;;;;5018986;28;20216;-68
2021/07/28 05:51:18;;;;;;;0.10;0.10;;;;;;;;;;5021889;28;20204;-66
2021/07/28 05:53:45;;;;;;;0.40;0.40;;;;;;;;;;5019682;28;20197;-64
2021/07/28 05:56:13;;;;;;;0.00;0.00;;;;;;;;;;5019346;28;20677;-66
2021/07/28 05:58:40;;;;;;;0.07;0.07;;;;;;;;;;5015637;28;20200;-68
2021/07/28 06:01:08;;;;;;;0.27;0.27;;;;;;;;;;5018651;28;20200;-68
2021/07/28 06:03:36;;;;;;;0.00;0.00;;;;;;;;;;5017404;28;20759;-64
2021/07/28 06:06:03;;;;;;;0.00;0.00;;;;;;;;;;5015612;28;20197;-63
2021/07/28 06:08:30;;;;;;;0.00;0.00;;;;;;;;;;5019125;28;20220;-64
2021/07/28 06:10:58;;;;;;;0.00;0.00;;;;;;;;;;5018066;28;20295;-64
2021/07/28 06:13:25;;;;;;;0.00;0.00;;;;;;;;;;5018565;28;20274;-64
2021/07/28 06:15:52;;;;;;;0.20;0.20;;;;;;;;;;5019708;28;20196;-64
2021/07/28 06:18:21;;;;;;;0.00;0.00;;;;;;;;;;5019024;28;20669;-68
2021/07/28 06:20:48;;;;;;;0.60;0.60;;;;;;;;;;5020454;28;20254;-64
2021/07/28 06:23:15;;;;;;;0.00;0.00;;;16.80;99.90;;;;;;5015679;28;20192;-65
2021/07/28 06:25:44;;;;;;;0.00;0.00;;;16.80;99.90;;;;;;5017357;28;20200;-65
2021/07/28 06:28:11;;;;;;;0.50;0.50;;;;;;;;;;5018845;28;20239;-63
2021/07/28 06:30:38;;;;;;;0.17;0.17;;;16.80;99.90;;;;;;5017830;28;20405;-66
2021/07/28 06:33:05;;;;;;;0.00;0.00;;;16.70;99.90;;;;;;5016723;28;20250;-64
2021/07/28 06:35:34;;;;;;;0.10;0.10;;;16.80;99.90;;;;;;5019228;28;20718;-63
2021/07/28 06:38:02;;;;;;;0.00;0.00;;;16.70;99.90;;;;;;5016988;28;20231;-64
2021/07/28 06:40:30;;;;;;;0.00;0.00;;;16.70;99.90;;;;;;5009665;28;20271;-64
2021/07/28 06:42:57;;;;;;;0.10;0.10;;;16.70;99.90;;;;;;5005494;28;20215;-67
2021/07/28 06:45:24;;;;;;;0.00;0.00;;;16.80;99.90;;;;;;5008607;28;20554;-63
2021/07/28 06:47:51;;;;;;;0.50;0.50;;;16.80;99.90;;;;;;5008977;28;20227;-65
2021/07/28 06:50:19;;;;;;;0.00;0.00;;;16.80;99.90;;;;;;5011230;28;20619;-69
2021/07/28 06:52:48;;;;;;;0.00;0.00;;;16.80;99.90;;;;;;5007289;28;20654;-69
2021/07/28 06:55:15;;;;;;;0.00;0.00;;;16.90;99.90;;;;;;5009199;28;20189;-67
2021/07/28 06:57:42;;;;;;;0.00;0.00;;;16.90;99.90;;;;;;5015192;28;20204;-71
2021/07/28 07:00:09;;;;;;;0.27;0.10;;;16.80;99.90;;;;;;5021365;28;20208;-66
2021/07/28 07:02:36;;;;;;;0.00;0.00;;;16.90;99.90;;;;;;5016442;28;20207;-64
2021/07/28 07:05:04;;;;;;;0.00;0.00;;;16.90;99.90;;;;;;5018227;28;20277;-66
2021/07/28 07:07:31;;;;;;;0.10;0.10;;;16.90;99.90;;;;;;5017772;28;20224;-65
2021/07/28 07:10:00;;;;;;;0.10;0.10;;;17.00;99.90;;;;;;5014537;28;20197;-66
2021/07/28 07:12:27;;;;;;;0.23;0.23;;;17.00;99.90;;;;;;5013001;28;20211;-66
2021/07/28 07:14:54;;;;;;;0.67;0.40;;;17.00;99.90;;;;;;5012970;28;20210;-67
2021/07/28 07:17:21;;;;;;;0.00;0.00;;;17.10;99.90;;;;;;5009588;28;20200;-68
2021/07/28 07:19:48;;;;;;;0.87;0.40;;;17.20;99.90;;;;;;5017718;28;20583;-65
2021/07/28 07:22:15;;;;;;;0.17;0.17;;;16.90;99.90;;;;;;5017112;28;20197;-67
2021/07/28 07:24:43;;;;;;;0.00;0.00;;;17.10;99.90;;;;;;5013682;28;20208;-71
2021/07/28 07:27:11;;;;;;;0.10;0.10;;;17.10;99.90;;;;;;5007812;28;20208;-66
2021/07/28 07:29:38;;;;;;;0.70;0.70;;;17.10;99.90;;;;;;5018003;28;20258;-66
2021/07/28 07:32:06;;;;;;;0.93;0.93;;;17.10;99.90;;;;;;5015774;28;20200;-66
2021/07/28 07:34:34;;;;;;;0.40;0.40;;;17.10;99.90;;;;;;5017607;28;20199;-66
2021/07/28 07:37:01;;;;;;;0.33;0.30;;;17.20;99.90;;;;;;5018569;28;20204;-69
2021/07/28 07:39:28;;;;;;;0.10;0.10;;;17.20;99.90;;;;;;5006315;28;20200;-66
2021/07/28 07:41:55;;;;;;;0.00;0.00;;;17.20;99.90;;;;;;5008601;28;20219;-66
2021/07/28 07:44:23;;;;;;;0.00;0.00;;;;;;;;;;5016430;28;20208;-67
2021/07/28 07:46:50;;;;;;;0.00;0.00;;;17.20;99.90;;;;;;5023487;28;20211;-67
2021/07/28 07:49:17;;;;;;;0.30;0.30;;;17.30;99.90;;;;;;5020586;28;20865;-68
2021/07/28 07:51:44;;;;;;;0.00;0.00;;;17.20;99.90;;;;;;5015413;28;20197;-67
2021/07/28 07:54:11;;;;;;;0.00;0.00;;;17.40;99.90;;;;;;5010072;28;20215;-67
2021/07/28 07:56:38;;;;;;;0.20;0.10;;;17.30;99.90;;;;;;5009103;28;20209;-66
2021/07/28 07:59:05;;;;;;;0.93;0.93;;;17.30;99.90;;;;;;5012667;28;20602;-66
2021/07/28 08:01:33;;;;;;;0.10;0.10;;;17.30;99.90;;;;;;5017029;28;23116;-64
2021/07/28 08:04:00;;;;;;;0.07;0.07;;;17.40;99.90;;;;;;5009753;28;20204;-65
2021/07/28 08:06:27;;;;;;;0.50;0.50;;;17.30;99.90;;;;;;5011260;28;20201;-65
2021/07/28 08:08:54;;;;;;;0.00;0.00;;;17.30;99.90;;;;;;5009782;28;20259;-64
2021/07/28 08:11:21;;;;;;;0.20;0.13;;;17.50;99.90;;;;;;5015807;28;20684;-65
2021/07/28 08:13:48;;;;;;;0.20;0.20;;;17.40;99.90;;;;;;5021197;28;20665;-64
2021/07/28 08:16:18;;;;;;;0.13;0.13;;;17.40;99.90;;;;;;5014572;28;20207;-65
2021/07/28 08:18:46;;;;;;;0.00;0.00;;;17.40;99.90;;;;;;5011645;28;20278;-65
2021/07/28 08:21:14;;;;;;;0.00;0.00;;;17.40;99.90;;;;;;5016627;28;20204;-68
2021/07/28 08:23:45;;;;;;;0.00;0.00;;;17.50;99.90;;;;;;5015157;28;20204;-65
2021/07/28 08:26:13;;;;;;;0.00;0.00;;;17.50;99.90;;;;;;5019874;28;20189;-65
2021/07/28 08:28:40;;;;;;;0.00;0.00;;;17.50;99.90;;;;;;5015554;28;20221;-64
2021/07/28 08:31:07;;;;;;;0.00;0.00;;;17.60;99.90;;;;;;5015322;28;20222;-67
2021/07/28 08:33:34;;;;;;;0.00;0.00;;;17.60;99.90;;;;;;5017569;28;20300;-65
2021/07/28 08:36:03;;;;;;;0.00;0.00;;;;;;;;;;5018824;28;20200;-70
2021/07/28 08:38:31;;;;;;;0.00;0.00;;;;;;;;;;5014169;28;20212;-64
2021/07/28 08:41:00;;;;;;;0.00;0.00;;;;;;;;;;5020327;28;20209;-68
2021/07/28 08:43:28;;;;;;;0.97;0.67;;;;;;;;;;5018676;28;20208;-64
2021/07/28 08:45:58;;;;;;;0.00;0.00;;;17.90;99.90;;;;;;5016019;28;20259;-65
2021/07/28 08:48:27;;;;;;;0.10;0.10;;;17.90;99.90;;;;;;5019302;28;20607;-68
2021/07/28 08:50:55;;;;;;;0.20;0.20;;;18.00;99.90;;;;;;5015090;28;20204;-68
2021/07/28 08:53:23;;;;;;;0.00;0.00;;;18.20;99.90;;;;;;5017592;28;20196;-66
2021/07/28 08:55:53;;;;;;;0.00;0.00;;;18.30;99.90;;;;;;5015977;28;20212;-70
2021/07/28 08:58:22;;;;;;;0.10;0.10;;;18.40;99.90;;;;;;5013442;28;20215;-66
2021/07/28 09:00:50;;;;;;;0.00;0.00;;;18.40;99.90;;;;;;5015104;28;20669;-68
2021/07/28 09:03:17;;;;;;;0.00;0.00;;;18.50;99.90;;;;;;5015283;28;20263;-67
2021/07/28 09:05:46;;;;;;;0.50;0.30;;;18.70;99.90;;;;;;5013670;28;20207;-67
2021/07/28 09:08:25;;;;;;;0.43;0.43;;;18.80;99.90;;;;;;5015628;28;20231;-66
2021/07/28 09:10:52;;;;;;;0.63;0.53;;;;;;;;;;5015741;28;20251;-66
2021/07/28 09:13:30;;;;;;;0.00;0.00;;;19.40;99.90;;;;;;5019156;28;20204;-70
2021/07/28 09:15:58;;;;;;;0.10;0.10;;;19.50;99.90;;;;;;5015840;28;20208;-66
2021/07/28 09:18:34;;;;;;;0.00;0.00;;;19.50;99.90;;;;;;5015405;28;20205;-64
2021/07/28 09:21:02;;;;;;;0.00;0.00;;;19.60;99.90;;;;;;5014559;28;20232;-67
2021/07/28 09:23:41;;;;;;;0.20;0.20;;;19.70;99.90;;;;;;5009403;28;20212;-65
2021/07/28 09:26:32;;;;;;;0.00;0.00;;;19.90;99.90;;;;;;5010208;28;20200;-67
2021/07/28 09:29:04;;;;;;;0.50;0.50;;;19.80;99.90;;;;;;5012713;28;20751;-71
2021/07/28 09:31:34;;;;;;;0.40;0.40;;;19.90;99.90;;;;;;5015200;28;20296;-68
2021/07/28 09:34:29;;;;;;;0.00;0.00;;;19.80;99.90;;;;;;5017948;28;20196;-69
2021/07/28 09:36:57;;;;;;;0.67;0.10;;;19.70;99.90;;;;;;5013303;28;20216;-66
2021/07/28 09:39:27;;;;;;;0.10;0.10;;;19.70;99.90;;;;;;5016893;28;20208;-65
2021/07/28 09:41:55;;;;;;;0.00;0.00;;;19.70;99.90;;;;;;5015011;28;20657;-66
2021/07/28 09:44:27;;;;;;;0.00;0.00;;;19.70;99.90;;;;;;5019534;28;20204;-65
2021/07/28 09:47:19;;;;;;;0.20;0.20;;;19.70;99.90;;;;;;5018030;28;20200;-68
2021/07/28 09:49:47;;;;;;;0.00;0.00;;;19.70;99.90;;;;;;4996766;28;20220;-65
2021/07/28 09:52:22;;;;;;;0.00;0.00;;;19.80;99.90;;;;;;5016612;28;20200;-70
2021/07/28 09:54:53;;;;;;;0.83;0.83;;;19.70;99.90;;;;;;5015032;28;20211;-65
2021/07/28 09:57:21;;;;;;;0.00;0.00;;;19.60;99.90;;;;;;5012098;28;20755;-66
2021/07/28 09:59:52;;;;;;;1.07;1.00;;;19.50;99.90;;;;;;5015616;28;20380;-63
2021/07/28 10:02:22;;;;;;;0.00;0.00;;;19.30;99.90;;;;;;5015141;28;20270;-66
2021/07/28 10:04:51;;;;;;;0.00;0.00;;;19.20;99.90;;;;;;5015833;28;22132;-65
2021/07/28 10:07:19;;;;;;;0.30;0.30;;;19.20;99.90;;;;;;5017296;28;20680;-67
2021/07/28 10:09:56;;;;;;;0.00;0.00;;;19.40;99.90;;;;;;5012976;28;20224;-67
2021/07/28 10:12:24;;;;;;;0.47;0.47;;;19.40;99.90;;;;;;5016052;28;20200;-66
2021/07/28 10:14:51;;;;;;;0.10;0.10;;;19.40;99.90;;;;;;5009867;28;20226;-68
2021/07/28 10:17:19;;;;;;;0.40;0.27;;;19.30;99.90;;;;;;5009711;28;20208;-68
2021/07/28 10:19:48;;;;;;;0.10;0.10;;;19.30;99.90;;;;;;5007688;28;20955;-67
2021/07/28 10:22:17;;;;;;;0.00;0.00;;;19.20;99.90;;;;;;5014429;28;20600;-69
2021/07/28 10:24:45;;;;;;;0.57;0.40;;;19.10;99.90;;;;;;5018897;28;20692;-67
2021/07/28 10:27:15;;;;;;;0.00;0.00;;;19.10;99.90;;;;;;5012550;28;20709;-66
2021/07/28 10:29:43;;;;;;;0.13;0.03;;;19.10;99.90;;;;;;5014693;28;20220;-69
2021/07/28 10:32:27;;;;;;;0.10;0.10;;;19.10;99.90;;;;;;5015493;28;20208;-66
2021/07/28 10:34:54;;;;;;;0.67;0.30;;;19.20;99.90;;;;;;5011314;28;20207;-67
2021/07/28 10:37:30;;;;;;;0.00;0.00;;;19.40;99.90;;;;;;5011810;28;20208;-67
2021/07/28 10:39:57;;;;;;;0.87;0.37;;;19.60;99.90;;;;;;5013770;28;20196;-70
2021/07/28 10:43:02;;;;;;;0.20;0.20;;;19.80;99.90;;;;;;5013781;28;20682;-66
2021/07/28 10:45:54;;;;;;;0.00;0.00;;;19.90;99.90;;;;;;5012983;28;20330;-66
2021/07/28 10:48:49;;;;;;;0.00;0.00;;;19.90;99.90;;;;;;5012413;28;20242;-65
2021/07/28 10:51:53;;;;;;;0.37;0.37;;;19.90;99.90;;;;;;5012359;28;20259;-66
2021/07/28 10:54:49;;;;;;;0.00;0.00;;;19.80;99.90;;;;;;5014189;28;20196;-67
2021/07/28 10:58:04;;;;;;;0.20;0.20;;;19.70;99.90;;;;;;5009869;28;20692;-65
2021/07/28 11:00:57;;;;;;;0.10;0.10;;;19.60;99.90;;;;;;5015492;28;20273;-65
2021/07/28 11:03:45;;;;;;;0.10;0.10;;;19.40;99.90;;;;;;5013062;28;20256;-64
2021/07/28 11:06:24;;;;;;;0.00;0.00;;;19.40;99.90;;;;;;5013683;28;20362;-69
2021/07/28 11:08:53;;;;;;;0.00;0.00;;;19.50;99.90;;;;;;5012913;28;20290;-67
2021/07/28 11:11:28;;;;;;;0.67;0.23;;;19.50;99.90;;;;;;5015587;28;20323;-68
2021/07/28 11:14:00;;;;;;;0.40;0.40;;;19.60;99.90;;;;;;5013662;28;20199;-65
2021/07/28 11:16:29;;;;;;;0.20;0.20;;;19.60;99.90;;;;;;5013535;28;20199;-65
2021/07/28 11:18:56;;;;;;;0.00;0.00;;;19.60;99.90;;;;;;5014352;28;20205;-65
2021/07/28 11:21:26;;;;;;;0.10;0.10;;;19.60;99.90;;;;;;5018774;28;20770;-66
2021/07/28 11:23:59;;;;;;;0.00;0.00;;;19.40;99.90;;;;;;5019741;28;20196;-68
2021/07/28 11:26:29;;;;;;;0.00;0.00;;;19.40;99.90;;;;;;5020714;28;20337;-69
2021/07/28 11:28:57;;;;;;;0.10;0.10;;;19.30;99.90;;;;;;5019643;28;20231;-66
2021/07/28 11:31:30;;;;;;;0.00;0.00;;;19.20;99.90;;;;;;5021472;28;20216;-71
2021/07/28 11:34:16;;;;;;;0.00;0.00;;;19.10;99.90;;;;;;5021787;28;20197;-69
2021/07/28 11:36:47;;;;;;;0.00;0.00;;;19.20;99.90;;;;;;5021835;28;20227;-67
2021/07/28 11:39:19;;;;;;;0.00;0.00;;;19.40;99.90;;;;;;5021403;28;20222;-66
2021/07/28 11:41:47;;;;;;;0.00;0.00;;;19.80;99.90;;;;;;5020003;28;20709;-67
2021/07/28 11:44:15;;;;;;;0.00;0.00;;;20.00;99.90;;;;;;5022953;28;20200;-68
2021/07/28 11:46:50;;;;;;;0.23;0.23;;;20.20;99.90;;;;;;5017675;28;20204;-68
2021/07/28 11:49:17;;;;;;;0.30;0.30;;;20.40;99.90;;;;;;5020646;28;20215;-65
2021/07/28 11:51:44;;;;;;;0.03;0.03;;;20.40;99.90;;;;;;5020625;28;20200;-66
2021/07/28 11:54:13;;;;;;;0.40;0.40;;;20.30;99.90;;;;;;5020383;28;20201;-67
2021/07/28 11:56:47;;;;;;;0.40;0.10;;;20.10;99.90;;;;;;5023586;28;20302;-65
2021/07/28 11:59:14;;;;;;;1.30;0.53;;;19.80;99.90;;;;;;5020203;28;20206;-67
2021/07/28 12:01:51;;;;;;;0.33;0.33;;;19.60;99.90;;;;;;5019153;28;20197;-67
2021/07/28 12:04:23;;;;;;;0.00;0.00;;;19.40;99.90;;;;;;5020239;28;20197;-67
2021/07/28 12:06:51;;;;;;;0.93;0.93;;;19.30;99.90;;;;;;5020147;28;20654;-67
2021/07/28 12:09:20;;;;;;;0.23;0.23;;;19.20;99.90;;;;;;5020109;28;20223;-67
2021/07/28 12:11:49;;;;;;;0.00;0.00;;;19.10;99.90;;;;;;5019577;28;20200;-68
2021/07/28 12:14:24;;;;;;;0.10;0.10;;;19.10;99.90;;;;;;5021017;28;20212;-69
2021/07/28 12:16:53;;;;;;;0.00;0.00;;;18.90;99.90;;;;;;5020678;28;20207;-66
2021/07/28 12:19:24;;;;;;;0.50;0.50;;;18.80;99.90;;;;;;5017668;28;20232;-66
2021/07/28 12:21:57;;;;;;;0.40;0.40;;;18.60;99.90;;;;;;5021538;28;20252;-67
2021/07/28 12:24:42;;;;;;;0.70;0.70;;;18.50;99.90;;;;;;5020629;28;20192;-65
2021/07/28 12:27:56;;;;;;;0.00;0.00;;;18.50;99.90;;;;;;5020947;28;20207;-69
2021/07/28 12:30:25;;;;;;;0.00;0.00;;;18.50;99.90;;;;;;5020841;28;20236;-68
2021/07/28 12:33:03;;;;;;;0.00;0.00;;;18.40;99.90;;;;;;5015171;28;20223;-66
2021/07/28 12:35:40;;;;;;;0.00;0.00;;;18.40;99.90;;;;;;5018139;28;20200;-68
2021/07/28 12:38:10;;;;;;;0.00;0.00;;;18.20;99.90;;;;;;5016630;28;20591;-72
2021/07/28 12:40:40;;;;;;;0.00;0.00;;;18.10;99.90;;;;;;5016637;28;20212;-71
2021/07/28 12:43:08;;;;;;;0.00;0.00;;;18.00;99.90;;;;;;5018255;28;20257;-67
2021/07/28 12:45:35;;;;;;;0.00;0.00;;;17.90;99.90;;;;;;5016553;28;20222;-66
2021/07/28 12:48:05;;;;;;;0.00;0.00;;;17.70;99.90;;;;;;5016474;28;20223;-69
2021/07/28 12:50:33;;;;;;;0.00;0.00;;;17.50;99.90;;;;;;5015530;28;20232;-66
2021/07/28 12:53:01;;;;;;;0.00;0.00;;;17.40;99.90;;;;;;5015168;28;20208;-69
2021/07/28 12:55:28;;;;;;;0.00;0.00;;;17.30;99.90;;;;;;5016344;28;20304;-64
2021/07/28 12:57:55;;;;;;;0.00;0.00;;;17.30;99.90;;;;;;5019696;28;20236;-67
2021/07/28 13:00:22;;;;;;;0.00;0.00;;;17.30;99.90;;;;;;5014763;28;20200;-66
2021/07/28 13:02:49;;;;;;;0.00;0.00;;;17.30;99.90;;;;;;5019152;28;20201;-65
2021/07/28 13:05:20;;;;;;;0.00;0.00;;;17.40;99.90;;;;;;5015723;28;20673;-66
2021/07/28 13:07:55;;;;;;;0.00;0.00;;;17.50;99.90;;;;;;5021249;28;20193;-64